sensor_id;sensor_type;location;lat;lon;timestamp;P1;durP1;ratioP1;P2;durP2;ratioP2
52888;SDS011;41413;52.770;6.892;2023-04-25T00:00:16;19.95;;;7.20;;
52888;SDS011;41413;52.770;6.892;2023-04-25T00:02:43;25.67;;;7.40;;
52888;SDS011;41413;52.770;6.892;2023-04-25T00:05:10;21.20;;;7.68;;
52888;SDS011;41413;52.770;6.892;2023-04-25T00:07:38;19.58;;;7.45;;
52888;SDS011;41413;52.770;6.892;2023-04-25T00:10:05;21.55;;;8.15;;
52888;SDS011;41413;52.770;6.892;2023-04-25T00:12:32;18.10;;;8.52;;
52888;SDS011;41413;52.770;6.892;2023-04-25T00:14:59;19.30;;;6.70;;
52888;SDS011;41413;52.770;6.892;2023-04-25T00:17:26;18.27;;;7.03;;
52888;SDS011;41413;52.770;6.892;2023-04-25T00:19:53;19.65;;;7.30;;
52888;SDS011;41413;52.770;6.892;2023-04-25T00:22:20;20.48;;;7.75;;
52888;SDS011;41413;52.770;6.892;2023-04-25T00:24:46;14.40;;;6.22;;
52888;SDS011;41413;52.770;6.892;2023-04-25T00:27:13;18.40;;;7.70;;
52888;SDS011;41413;52.770;6.892;2023-04-25T00:29:42;19.55;;;6.38;;
52888;SDS011;41413;52.770;6.892;2023-04-25T00:32:09;14.38;;;6.55;;
52888;SDS011;41413;52.770;6.892;2023-04-25T00:34:36;14.57;;;6.65;;
52888;SDS011;41413;52.770;6.892;2023-04-25T00:37:02;16.98;;;7.22;;
52888;SDS011;41413;52.770;6.892;2023-04-25T00:39:29;18.17;;;7.00;;
52888;SDS011;41413;52.770;6.892;2023-04-25T00:41:56;17.95;;;6.65;;
52888;SDS011;41413;52.770;6.892;2023-04-25T00:44:23;18.23;;;7.45;;
52888;SDS011;41413;52.770;6.892;2023-04-25T00:46:53;17.17;;;7.10;;
52888;SDS011;41413;52.770;6.892;2023-04-25T00:49:20;15.63;;;6.75;;
52888;SDS011;41413;52.770;6.892;2023-04-25T00:51:47;19.33;;;7.75;;
52888;SDS011;41413;52.770;6.892;2023-04-25T00:54:14;20.75;;;6.75;;
52888;SDS011;41413;52.770;6.892;2023-04-25T00:56:42;18.77;;;7.32;;
52888;SDS011;41413;52.770;6.892;2023-04-25T00:59:09;21.13;;;7.07;;
52888;SDS011;41413;52.770;6.892;2023-04-25T01:01:36;21.88;;;6.82;;
52888;SDS011;41413;52.770;6.892;2023-04-25T01:04:05;20.00;;;7.50;;
52888;SDS011;41413;52.770;6.892;2023-04-25T01:06:31;16.30;;;6.75;;
52888;SDS011;41413;52.770;6.892;2023-04-25T01:08:58;15.75;;;6.75;;
52888;SDS011;41413;52.770;6.892;2023-04-25T01:11:25;17.23;;;7.22;;
52888;SDS011;41413;52.770;6.892;2023-04-25T01:13:52;23.02;;;8.02;;
52888;SDS011;41413;52.770;6.892;2023-04-25T01:16:19;18.30;;;6.90;;
52888;SDS011;41413;52.770;6.892;2023-04-25T01:18:46;14.02;;;7.07;;
52888;SDS011;41413;52.770;6.892;2023-04-25T01:21:14;20.95;;;7.97;;
52888;SDS011;41413;52.770;6.892;2023-04-25T01:23:41;20.13;;;6.88;;
52888;SDS011;41413;52.770;6.892;2023-04-25T01:26:09;16.90;;;6.85;;
52888;SDS011;41413;52.770;6.892;2023-04-25T01:28:37;12.70;;;6.03;;
52888;SDS011;41413;52.770;6.892;2023-04-25T01:31:07;15.27;;;5.95;;
52888;SDS011;41413;52.770;6.892;2023-04-25T01:33:34;16.95;;;6.35;;
52888;SDS011;41413;52.770;6.892;2023-04-25T01:36:01;19.63;;;7.50;;
52888;SDS011;41413;52.770;6.892;2023-04-25T01:38:28;17.63;;;6.55;;
52888;SDS011;41413;52.770;6.892;2023-04-25T01:40:55;15.93;;;6.20;;
52888;SDS011;41413;52.770;6.892;2023-04-25T01:43:22;13.38;;;6.38;;
52888;SDS011;41413;52.770;6.892;2023-04-25T01:45:49;12.23;;;6.68;;
52888;SDS011;41413;52.770;6.892;2023-04-25T01:48:17;12.75;;;6.28;;
52888;SDS011;41413;52.770;6.892;2023-04-25T01:50:45;14.88;;;5.30;;
52888;SDS011;41413;52.770;6.892;2023-04-25T01:53:13;19.25;;;6.97;;
52888;SDS011;41413;52.770;6.892;2023-04-25T01:55:40;19.67;;;7.93;;
52888;SDS011;41413;52.770;6.892;2023-04-25T01:58:07;19.58;;;7.47;;
52888;SDS011;41413;52.770;6.892;2023-04-25T02:00:36;14.00;;;6.40;;
52888;SDS011;41413;52.770;6.892;2023-04-25T02:03:06;21.52;;;8.10;;
52888;SDS011;41413;52.770;6.892;2023-04-25T02:05:38;22.08;;;7.30;;
52888;SDS011;41413;52.770;6.892;2023-04-25T02:08:05;22.30;;;6.63;;
52888;SDS011;41413;52.770;6.892;2023-04-25T02:10:33;22.02;;;7.93;;
52888;SDS011;41413;52.770;6.892;2023-04-25T02:13:00;13.73;;;6.38;;
52888;SDS011;41413;52.770;6.892;2023-04-25T02:15:27;15.60;;;7.88;;
52888;SDS011;41413;52.770;6.892;2023-04-25T02:17:53;15.95;;;6.70;;
52888;SDS011;41413;52.770;6.892;2023-04-25T02:20:21;19.75;;;7.68;;
52888;SDS011;41413;52.770;6.892;2023-04-25T02:22:48;24.50;;;7.80;;
52888;SDS011;41413;52.770;6.892;2023-04-25T02:25:16;20.83;;;7.82;;
52888;SDS011;41413;52.770;6.892;2023-04-25T02:27:43;18.98;;;7.82;;
52888;SDS011;41413;52.770;6.892;2023-04-25T02:30:10;20.98;;;6.60;;
52888;SDS011;41413;52.770;6.892;2023-04-25T02:32:37;22.77;;;7.00;;
52888;SDS011;41413;52.770;6.892;2023-04-25T02:35:05;21.13;;;7.95;;
52888;SDS011;41413;52.770;6.892;2023-04-25T02:37:33;12.50;;;6.60;;
52888;SDS011;41413;52.770;6.892;2023-04-25T02:40:01;18.10;;;5.97;;
52888;SDS011;41413;52.770;6.892;2023-04-25T02:42:29;16.17;;;6.28;;
52888;SDS011;41413;52.770;6.892;2023-04-25T02:44:56;15.35;;;6.82;;
52888;SDS011;41413;52.770;6.892;2023-04-25T02:47:22;15.25;;;7.25;;
52888;SDS011;41413;52.770;6.892;2023-04-25T02:49:49;23.77;;;6.82;;
52888;SDS011;41413;52.770;6.892;2023-04-25T02:52:16;17.85;;;7.45;;
52888;SDS011;41413;52.770;6.892;2023-04-25T02:54:43;17.80;;;6.80;;
52888;SDS011;41413;52.770;6.892;2023-04-25T02:57:09;16.38;;;7.45;;
52888;SDS011;41413;52.770;6.892;2023-04-25T02:59:36;18.48;;;7.65;;
52888;SDS011;41413;52.770;6.892;2023-04-25T03:02:03;19.67;;;6.95;;
52888;SDS011;41413;52.770;6.892;2023-04-25T03:04:30;16.88;;;6.65;;
52888;SDS011;41413;52.770;6.892;2023-04-25T03:06:56;18.80;;;7.10;;
52888;SDS011;41413;52.770;6.892;2023-04-25T03:09:23;19.20;;;6.50;;
52888;SDS011;41413;52.770;6.892;2023-04-25T03:11:50;25.65;;;7.72;;
52888;SDS011;41413;52.770;6.892;2023-04-25T03:14:16;17.98;;;7.80;;
52888;SDS011;41413;52.770;6.892;2023-04-25T03:16:43;26.83;;;7.22;;
52888;SDS011;41413;52.770;6.892;2023-04-25T03:19:10;14.50;;;6.25;;
52888;SDS011;41413;52.770;6.892;2023-04-25T03:21:36;24.60;;;5.85;;
52888;SDS011;41413;52.770;6.892;2023-04-25T03:24:04;16.40;;;6.70;;
52888;SDS011;41413;52.770;6.892;2023-04-25T03:26:31;16.50;;;6.63;;
52888;SDS011;41413;52.770;6.892;2023-04-25T03:28:57;24.63;;;6.47;;
52888;SDS011;41413;52.770;6.892;2023-04-25T03:31:24;25.27;;;6.03;;
52888;SDS011;41413;52.770;6.892;2023-04-25T03:33:51;18.48;;;7.38;;
52888;SDS011;41413;52.770;6.892;2023-04-25T03:36:18;15.68;;;6.03;;
52888;SDS011;41413;52.770;6.892;2023-04-25T03:38:44;13.38;;;6.70;;
52888;SDS011;41413;52.770;6.892;2023-04-25T03:41:11;15.85;;;5.97;;
52888;SDS011;41413;52.770;6.892;2023-04-25T03:43:38;15.45;;;5.57;;
52888;SDS011;41413;52.770;6.892;2023-04-25T03:46:04;16.38;;;5.57;;
52888;SDS011;41413;52.770;6.892;2023-04-25T03:48:31;17.25;;;5.88;;
52888;SDS011;41413;52.770;6.892;2023-04-25T03:50:58;22.63;;;6.47;;
52888;SDS011;41413;52.770;6.892;2023-04-25T03:53:25;13.88;;;4.95;;
52888;SDS011;41413;52.770;6.892;2023-04-25T03:55:52;17.05;;;5.78;;
52888;SDS011;41413;52.770;6.892;2023-04-25T03:58:18;30.65;;;6.70;;
52888;SDS011;41413;52.770;6.892;2023-04-25T04:00:45;12.98;;;5.57;;
52888;SDS011;41413;52.770;6.892;2023-04-25T04:03:12;16.65;;;6.03;;
52888;SDS011;41413;52.770;6.892;2023-04-25T04:05:39;18.45;;;6.18;;
52888;SDS011;41413;52.770;6.892;2023-04-25T04:08:06;15.30;;;5.20;;
52888;SDS011;41413;52.770;6.892;2023-04-25T04:10:33;18.73;;;6.00;;
52888;SDS011;41413;52.770;6.892;2023-04-25T04:13:00;14.23;;;5.43;;
52888;SDS011;41413;52.770;6.892;2023-04-25T04:15:27;11.75;;;6.15;;
52888;SDS011;41413;52.770;6.892;2023-04-25T04:17:53;24.27;;;6.22;;
52888;SDS011;41413;52.770;6.892;2023-04-25T04:20:21;20.42;;;6.57;;
52888;SDS011;41413;52.770;6.892;2023-04-25T04:22:47;15.23;;;5.28;;
52888;SDS011;41413;52.770;6.892;2023-04-25T04:25:14;13.27;;;4.40;;
52888;SDS011;41413;52.770;6.892;2023-04-25T04:27:41;17.75;;;5.45;;
52888;SDS011;41413;52.770;6.892;2023-04-25T04:30:08;12.82;;;4.93;;
52888;SDS011;41413;52.770;6.892;2023-04-25T04:32:35;13.30;;;4.55;;
52888;SDS011;41413;52.770;6.892;2023-04-25T04:35:02;9.95;;;4.28;;
52888;SDS011;41413;52.770;6.892;2023-04-25T04:37:30;12.93;;;5.28;;
52888;SDS011;41413;52.770;6.892;2023-04-25T04:39:57;11.77;;;4.20;;
52888;SDS011;41413;52.770;6.892;2023-04-25T04:42:23;7.30;;;3.92;;
52888;SDS011;41413;52.770;6.892;2023-04-25T04:44:51;11.73;;;4.25;;
52888;SDS011;41413;52.770;6.892;2023-04-25T04:47:18;8.73;;;4.10;;
52888;SDS011;41413;52.770;6.892;2023-04-25T04:49:46;12.68;;;3.55;;
52888;SDS011;41413;52.770;6.892;2023-04-25T04:52:12;12.80;;;4.00;;
52888;SDS011;41413;52.770;6.892;2023-04-25T04:54:39;9.48;;;3.75;;
52888;SDS011;41413;52.770;6.892;2023-04-25T04:57:06;6.25;;;3.50;;
52888;SDS011;41413;52.770;6.892;2023-04-25T04:59:32;11.10;;;3.72;;
52888;SDS011;41413;52.770;6.892;2023-04-25T05:01:59;12.77;;;3.42;;
52888;SDS011;41413;52.770;6.892;2023-04-25T05:04:26;8.82;;;3.22;;
52888;SDS011;41413;52.770;6.892;2023-04-25T05:06:53;9.25;;;3.55;;
52888;SDS011;41413;52.770;6.892;2023-04-25T05:09:19;10.02;;;3.45;;
52888;SDS011;41413;52.770;6.892;2023-04-25T05:11:46;11.18;;;3.33;;
52888;SDS011;41413;52.770;6.892;2023-04-25T05:14:13;10.60;;;3.53;;
52888;SDS011;41413;52.770;6.892;2023-04-25T05:16:39;12.43;;;2.72;;
52888;SDS011;41413;52.770;6.892;2023-04-25T05:19:06;7.95;;;3.30;;
52888;SDS011;41413;52.770;6.892;2023-04-25T05:21:33;8.80;;;3.63;;
52888;SDS011;41413;52.770;6.892;2023-04-25T05:24:00;5.82;;;2.70;;
52888;SDS011;41413;52.770;6.892;2023-04-25T05:26:27;7.05;;;3.92;;
52888;SDS011;41413;52.770;6.892;2023-04-25T05:28:57;6.40;;;2.92;;
52888;SDS011;41413;52.770;6.892;2023-04-25T05:31:24;9.73;;;2.97;;
52888;SDS011;41413;52.770;6.892;2023-04-25T05:33:51;9.30;;;2.78;;
52888;SDS011;41413;52.770;6.892;2023-04-25T05:36:18;9.43;;;3.40;;
52888;SDS011;41413;52.770;6.892;2023-04-25T05:38:45;11.27;;;3.70;;
52888;SDS011;41413;52.770;6.892;2023-04-25T05:41:12;10.27;;;3.75;;
52888;SDS011;41413;52.770;6.892;2023-04-25T05:43:39;8.13;;;3.60;;
52888;SDS011;41413;52.770;6.892;2023-04-25T05:46:11;12.65;;;3.70;;
52888;SDS011;41413;52.770;6.892;2023-04-25T05:48:38;7.85;;;3.00;;
52888;SDS011;41413;52.770;6.892;2023-04-25T05:51:05;10.30;;;3.75;;
52888;SDS011;41413;52.770;6.892;2023-04-25T05:53:32;6.40;;;2.58;;
52888;SDS011;41413;52.770;6.892;2023-04-25T05:55:59;8.77;;;2.95;;
52888;SDS011;41413;52.770;6.892;2023-04-25T05:58:25;11.77;;;3.80;;
52888;SDS011;41413;52.770;6.892;2023-04-25T06:00:52;7.45;;;3.22;;
52888;SDS011;41413;52.770;6.892;2023-04-25T06:03:19;9.52;;;3.60;;
52888;SDS011;41413;52.770;6.892;2023-04-25T06:05:46;12.60;;;3.78;;
52888;SDS011;41413;52.770;6.892;2023-04-25T06:08:13;10.55;;;3.17;;
52888;SDS011;41413;52.770;6.892;2023-04-25T06:10:40;8.88;;;4.13;;
52888;SDS011;41413;52.770;6.892;2023-04-25T06:13:07;10.30;;;3.20;;
52888;SDS011;41413;52.770;6.892;2023-04-25T06:15:33;13.52;;;3.33;;
52888;SDS011;41413;52.770;6.892;2023-04-25T06:18:01;11.38;;;3.83;;
52888;SDS011;41413;52.770;6.892;2023-04-25T06:20:27;11.25;;;4.68;;
52888;SDS011;41413;52.770;6.892;2023-04-25T06:22:54;10.43;;;3.58;;
52888;SDS011;41413;52.770;6.892;2023-04-25T06:25:21;10.25;;;4.32;;
52888;SDS011;41413;52.770;6.892;2023-04-25T06:27:48;13.30;;;4.18;;
52888;SDS011;41413;52.770;6.892;2023-04-25T06:30:14;13.02;;;4.57;;
52888;SDS011;41413;52.770;6.892;2023-04-25T06:32:44;13.27;;;4.95;;
52888;SDS011;41413;52.770;6.892;2023-04-25T06:35:11;9.45;;;4.30;;
52888;SDS011;41413;52.770;6.892;2023-04-25T06:37:37;8.57;;;4.10;;
52888;SDS011;41413;52.770;6.892;2023-04-25T06:40:04;10.23;;;3.63;;
52888;SDS011;41413;52.770;6.892;2023-04-25T06:42:31;8.65;;;3.70;;
52888;SDS011;41413;52.770;6.892;2023-04-25T06:44:58;13.43;;;5.03;;
52888;SDS011;41413;52.770;6.892;2023-04-25T06:47:25;11.13;;;3.90;;
52888;SDS011;41413;52.770;6.892;2023-04-25T06:49:51;10.07;;;3.75;;
52888;SDS011;41413;52.770;6.892;2023-04-25T06:52:18;15.27;;;4.20;;
52888;SDS011;41413;52.770;6.892;2023-04-25T06:54:45;12.77;;;4.78;;
52888;SDS011;41413;52.770;6.892;2023-04-25T06:57:11;12.05;;;4.00;;
52888;SDS011;41413;52.770;6.892;2023-04-25T06:59:39;9.55;;;4.25;;
52888;SDS011;41413;52.770;6.892;2023-04-25T07:02:05;10.20;;;3.90;;
52888;SDS011;41413;52.770;6.892;2023-04-25T07:04:32;8.63;;;3.78;;
52888;SDS011;41413;52.770;6.892;2023-04-25T07:06:59;10.80;;;4.13;;
52888;SDS011;41413;52.770;6.892;2023-04-25T07:09:28;11.02;;;4.07;;
52888;SDS011;41413;52.770;6.892;2023-04-25T07:11:56;9.68;;;3.50;;
52888;SDS011;41413;52.770;6.892;2023-04-25T07:14:22;7.97;;;3.28;;
52888;SDS011;41413;52.770;6.892;2023-04-25T07:16:49;6.93;;;3.47;;
52888;SDS011;41413;52.770;6.892;2023-04-25T07:19:16;8.10;;;3.35;;
52888;SDS011;41413;52.770;6.892;2023-04-25T07:21:42;8.52;;;4.05;;
52888;SDS011;41413;52.770;6.892;2023-04-25T07:24:09;10.27;;;3.25;;
52888;SDS011;41413;52.770;6.892;2023-04-25T07:26:36;7.20;;;3.58;;
52888;SDS011;41413;52.770;6.892;2023-04-25T07:29:03;12.40;;;4.63;;
52888;SDS011;41413;52.770;6.892;2023-04-25T07:31:30;8.05;;;3.63;;
52888;SDS011;41413;52.770;6.892;2023-04-25T07:33:57;6.13;;;3.30;;
52888;SDS011;41413;52.770;6.892;2023-04-25T07:36:27;7.00;;;3.17;;
52888;SDS011;41413;52.770;6.892;2023-04-25T07:38:53;6.97;;;2.97;;
52888;SDS011;41413;52.770;6.892;2023-04-25T07:41:20;9.45;;;3.05;;
52888;SDS011;41413;52.770;6.892;2023-04-25T07:43:47;6.75;;;3.22;;
52888;SDS011;41413;52.770;6.892;2023-04-25T07:46:13;8.15;;;2.45;;
52888;SDS011;41413;52.770;6.892;2023-04-25T07:48:40;5.03;;;2.88;;
52888;SDS011;41413;52.770;6.892;2023-04-25T07:51:07;13.52;;;3.47;;
52888;SDS011;41413;52.770;6.892;2023-04-25T07:53:33;8.10;;;3.35;;
52888;SDS011;41413;52.770;6.892;2023-04-25T07:56:01;5.40;;;2.72;;
52888;SDS011;41413;52.770;6.892;2023-04-25T07:58:28;12.93;;;2.80;;
52888;SDS011;41413;52.770;6.892;2023-04-25T08:00:55;10.00;;;3.03;;
52888;SDS011;41413;52.770;6.892;2023-04-25T08:03:22;10.10;;;3.53;;
52888;SDS011;41413;52.770;6.892;2023-04-25T08:05:49;9.05;;;3.22;;
52888;SDS011;41413;52.770;6.892;2023-04-25T08:08:16;5.82;;;2.50;;
52888;SDS011;41413;52.770;6.892;2023-04-25T08:10:42;10.38;;;4.03;;
52888;SDS011;41413;52.770;6.892;2023-04-25T08:13:09;6.78;;;2.92;;
52888;SDS011;41413;52.770;6.892;2023-04-25T08:15:36;11.25;;;3.67;;
52888;SDS011;41413;52.770;6.892;2023-04-25T08:18:02;11.55;;;2.90;;
52888;SDS011;41413;52.770;6.892;2023-04-25T08:20:29;6.72;;;2.70;;
52888;SDS011;41413;52.770;6.892;2023-04-25T08:22:56;10.18;;;4.07;;
52888;SDS011;41413;52.770;6.892;2023-04-25T08:25:23;9.45;;;2.20;;
52888;SDS011;41413;52.770;6.892;2023-04-25T08:27:49;8.68;;;2.97;;
52888;SDS011;41413;52.770;6.892;2023-04-25T08:30:16;6.50;;;2.83;;
52888;SDS011;41413;52.770;6.892;2023-04-25T08:32:43;7.63;;;2.67;;
52888;SDS011;41413;52.770;6.892;2023-04-25T08:35:09;7.10;;;2.60;;
52888;SDS011;41413;52.770;6.892;2023-04-25T08:37:37;7.10;;;2.65;;
52888;SDS011;41413;52.770;6.892;2023-04-25T08:40:04;4.20;;;2.28;;
52888;SDS011;41413;52.770;6.892;2023-04-25T08:42:33;6.28;;;2.88;;
52888;SDS011;41413;52.770;6.892;2023-04-25T08:45:02;5.97;;;2.67;;
52888;SDS011;41413;52.770;6.892;2023-04-25T08:47:32;4.53;;;2.70;;
52888;SDS011;41413;52.770;6.892;2023-04-25T08:50:03;5.90;;;2.58;;
52888;SDS011;41413;52.770;6.892;2023-04-25T08:52:36;4.95;;;2.08;;
52888;SDS011;41413;52.770;6.892;2023-04-25T08:55:09;4.07;;;1.83;;
52888;SDS011;41413;52.770;6.892;2023-04-25T08:57:38;3.50;;;2.22;;
52888;SDS011;41413;52.770;6.892;2023-04-25T09:00:06;5.13;;;1.98;;
52888;SDS011;41413;52.770;6.892;2023-04-25T09:02:34;3.90;;;1.90;;
52888;SDS011;41413;52.770;6.892;2023-04-25T09:05:02;5.88;;;2.00;;
52888;SDS011;41413;52.770;6.892;2023-04-25T09:07:30;4.18;;;2.15;;
52888;SDS011;41413;52.770;6.892;2023-04-25T09:09:57;4.53;;;1.90;;
52888;SDS011;41413;52.770;6.892;2023-04-25T09:12:26;7.63;;;2.40;;
52888;SDS011;41413;52.770;6.892;2023-04-25T09:15:01;5.55;;;2.85;;
52888;SDS011;41413;52.770;6.892;2023-04-25T09:17:28;8.02;;;2.38;;
52888;SDS011;41413;52.770;6.892;2023-04-25T09:19:55;5.40;;;2.05;;
52888;SDS011;41413;52.770;6.892;2023-04-25T09:22:32;5.80;;;2.20;;
52888;SDS011;41413;52.770;6.892;2023-04-25T09:25:01;7.72;;;2.95;;
52888;SDS011;41413;52.770;6.892;2023-04-25T09:27:30;6.35;;;2.83;;
52888;SDS011;41413;52.770;6.892;2023-04-25T09:29:58;5.03;;;2.25;;
52888;SDS011;41413;52.770;6.892;2023-04-25T09:32:26;3.13;;;2.78;;
52888;SDS011;41413;52.770;6.892;2023-04-25T09:34:54;4.97;;;2.28;;
52888;SDS011;41413;52.770;6.892;2023-04-25T09:37:23;3.13;;;1.60;;
52888;SDS011;41413;52.770;6.892;2023-04-25T09:39:55;5.53;;;2.85;;
52888;SDS011;41413;52.770;6.892;2023-04-25T09:42:26;5.75;;;3.00;;
52888;SDS011;41413;52.770;6.892;2023-04-25T09:44:55;5.95;;;3.17;;
52888;SDS011;41413;52.770;6.892;2023-04-25T09:47:23;6.75;;;2.83;;
52888;SDS011;41413;52.770;6.892;2023-04-25T09:49:51;4.30;;;2.30;;
52888;SDS011;41413;52.770;6.892;2023-04-25T09:52:22;3.30;;;2.35;;
52888;SDS011;41413;52.770;6.892;2023-04-25T09:54:51;2.75;;;1.92;;
52888;SDS011;41413;52.770;6.892;2023-04-25T09:59:47;3.05;;;1.90;;
52888;SDS011;41413;52.770;6.892;2023-04-25T10:02:16;3.42;;;2.38;;
52888;SDS011;41413;52.770;6.892;2023-04-25T10:04:55;2.35;;;1.65;;
52888;SDS011;41413;52.770;6.892;2023-04-25T10:07:23;4.10;;;2.05;;
52888;SDS011;41413;52.770;6.892;2023-04-25T10:09:55;3.40;;;2.28;;
52888;SDS011;41413;52.770;6.892;2023-04-25T10:12:32;3.85;;;2.40;;
52888;SDS011;41413;52.770;6.892;2023-04-25T10:15:00;5.13;;;1.92;;
52888;SDS011;41413;52.770;6.892;2023-04-25T10:17:28;6.32;;;2.13;;
52888;SDS011;41413;52.770;6.892;2023-04-25T10:19:55;2.80;;;2.03;;
52888;SDS011;41413;52.770;6.892;2023-04-25T10:24:56;4.90;;;1.88;;
52888;SDS011;41413;52.770;6.892;2023-04-25T10:27:26;3.22;;;2.30;;
52888;SDS011;41413;52.770;6.892;2023-04-25T10:30:00;5.43;;;2.38;;
52888;SDS011;41413;52.770;6.892;2023-04-25T10:32:36;4.15;;;2.30;;
52888;SDS011;41413;52.770;6.892;2023-04-25T10:37:56;5.03;;;2.28;;
52888;SDS011;41413;52.770;6.892;2023-04-25T10:40:35;4.40;;;2.50;;
52888;SDS011;41413;52.770;6.892;2023-04-25T10:45:59;10.63;;;2.70;;
52888;SDS011;41413;52.770;6.892;2023-04-25T10:48:26;2.58;;;2.13;;
52888;SDS011;41413;52.770;6.892;2023-04-25T10:51:09;3.83;;;2.10;;
52888;SDS011;41413;52.770;6.892;2023-04-25T10:53:37;5.55;;;2.35;;
52888;SDS011;41413;52.770;6.892;2023-04-25T10:56:12;1.65;;;1.55;;
52888;SDS011;41413;52.770;6.892;2023-04-25T10:58:44;3.45;;;1.85;;
52888;SDS011;41413;52.770;6.892;2023-04-25T11:01:14;5.50;;;2.88;;
52888;SDS011;41413;52.770;6.892;2023-04-25T11:03:46;2.97;;;1.63;;
52888;SDS011;41413;52.770;6.892;2023-04-25T11:06:26;6.95;;;2.72;;
52888;SDS011;41413;52.770;6.892;2023-04-25T11:09:03;3.50;;;1.92;;
52888;SDS011;41413;52.770;6.892;2023-04-25T11:11:39;3.22;;;2.22;;
52888;SDS011;41413;52.770;6.892;2023-04-25T11:14:06;3.35;;;2.38;;
52888;SDS011;41413;52.770;6.892;2023-04-25T11:16:33;4.07;;;2.72;;
52888;SDS011;41413;52.770;6.892;2023-04-25T11:18:59;4.90;;;2.38;;
52888;SDS011;41413;52.770;6.892;2023-04-25T11:21:26;2.78;;;2.33;;
52888;SDS011;41413;52.770;6.892;2023-04-25T11:23:54;4.50;;;2.63;;
52888;SDS011;41413;52.770;6.892;2023-04-25T11:26:23;3.05;;;2.25;;
52888;SDS011;41413;52.770;6.892;2023-04-25T11:28:51;3.53;;;2.38;;
52888;SDS011;41413;52.770;6.892;2023-04-25T11:31:20;6.45;;;3.75;;
52888;SDS011;41413;52.770;6.892;2023-04-25T11:33:47;6.97;;;3.75;;
52888;SDS011;41413;52.770;6.892;2023-04-25T11:36:14;4.80;;;3.03;;
52888;SDS011;41413;52.770;6.892;2023-04-25T11:38:41;8.15;;;3.78;;
52888;SDS011;41413;52.770;6.892;2023-04-25T11:41:08;6.55;;;2.75;;
52888;SDS011;41413;52.770;6.892;2023-04-25T11:43:35;9.80;;;3.72;;
52888;SDS011;41413;52.770;6.892;2023-04-25T11:46:01;8.38;;;3.13;;
52888;SDS011;41413;52.770;6.892;2023-04-25T11:48:40;3.47;;;2.05;;
52888;SDS011;41413;52.770;6.892;2023-04-25T11:51:07;5.53;;;2.40;;
52888;SDS011;41413;52.770;6.892;2023-04-25T11:53:35;5.65;;;2.30;;
52888;SDS011;41413;52.770;6.892;2023-04-25T11:56:02;5.78;;;1.95;;
52888;SDS011;41413;52.770;6.892;2023-04-25T12:03:58;4.28;;;2.28;;
52888;SDS011;41413;52.770;6.892;2023-04-25T12:06:39;5.20;;;2.50;;
52888;SDS011;41413;52.770;6.892;2023-04-25T12:09:07;7.00;;;3.08;;
52888;SDS011;41413;52.770;6.892;2023-04-25T12:14:12;3.30;;;1.67;;
52888;SDS011;41413;52.770;6.892;2023-04-25T12:16:50;2.30;;;1.70;;
52888;SDS011;41413;52.770;6.892;2023-04-25T12:19:18;2.17;;;1.70;;
52888;SDS011;41413;52.770;6.892;2023-04-25T12:21:46;5.63;;;2.78;;
52888;SDS011;41413;52.770;6.892;2023-04-25T12:24:17;3.33;;;2.28;;
52888;SDS011;41413;52.770;6.892;2023-04-25T12:26:53;2.58;;;2.38;;
52888;SDS011;41413;52.770;6.892;2023-04-25T12:29:29;4.32;;;2.70;;
52888;SDS011;41413;52.770;6.892;2023-04-25T12:32:13;5.75;;;2.83;;
52888;SDS011;41413;52.770;6.892;2023-04-25T12:34:41;5.57;;;2.80;;
52888;SDS011;41413;52.770;6.892;2023-04-25T12:37:08;8.93;;;3.35;;
52888;SDS011;41413;52.770;6.892;2023-04-25T12:39:35;6.13;;;3.63;;
52888;SDS011;41413;52.770;6.892;2023-04-25T12:42:02;5.78;;;2.78;;
52888;SDS011;41413;52.770;6.892;2023-04-25T12:44:33;5.35;;;2.63;;
52888;SDS011;41413;52.770;6.892;2023-04-25T12:47:00;4.32;;;2.42;;
52888;SDS011;41413;52.770;6.892;2023-04-25T12:49:27;5.18;;;2.83;;
52888;SDS011;41413;52.770;6.892;2023-04-25T12:51:53;4.93;;;2.72;;
52888;SDS011;41413;52.770;6.892;2023-04-25T12:54:20;5.35;;;2.55;;
52888;SDS011;41413;52.770;6.892;2023-04-25T12:56:47;5.45;;;3.03;;
52888;SDS011;41413;52.770;6.892;2023-04-25T12:59:14;7.07;;;2.60;;
52888;SDS011;41413;52.770;6.892;2023-04-25T13:01:40;3.63;;;2.25;;
52888;SDS011;41413;52.770;6.892;2023-04-25T13:04:07;5.45;;;2.17;;
52888;SDS011;41413;52.770;6.892;2023-04-25T13:06:34;4.97;;;2.47;;
52888;SDS011;41413;52.770;6.892;2023-04-25T13:09:02;6.68;;;2.20;;
52888;SDS011;41413;52.770;6.892;2023-04-25T13:11:29;5.57;;;2.65;;
52888;SDS011;41413;52.770;6.892;2023-04-25T13:14:01;7.95;;;2.95;;
52888;SDS011;41413;52.770;6.892;2023-04-25T13:16:27;4.97;;;2.30;;
52888;SDS011;41413;52.770;6.892;2023-04-25T13:18:54;5.47;;;2.20;;
52888;SDS011;41413;52.770;6.892;2023-04-25T13:21:22;4.90;;;2.38;;
52888;SDS011;41413;52.770;6.892;2023-04-25T13:23:49;5.15;;;2.53;;
52888;SDS011;41413;52.770;6.892;2023-04-25T13:26:17;4.88;;;2.05;;
52888;SDS011;41413;52.770;6.892;2023-04-25T13:28:44;4.05;;;2.13;;
52888;SDS011;41413;52.770;6.892;2023-04-25T13:31:10;4.28;;;2.20;;
52888;SDS011;41413;52.770;6.892;2023-04-25T13:33:37;4.63;;;2.22;;
52888;SDS011;41413;52.770;6.892;2023-04-25T13:36:04;4.97;;;2.00;;
52888;SDS011;41413;52.770;6.892;2023-04-25T13:38:31;6.05;;;2.20;;
52888;SDS011;41413;52.770;6.892;2023-04-25T13:40:58;7.40;;;2.10;;
52888;SDS011;41413;52.770;6.892;2023-04-25T13:43:25;6.28;;;2.65;;
52888;SDS011;41413;52.770;6.892;2023-04-25T13:45:51;4.60;;;2.45;;
52888;SDS011;41413;52.770;6.892;2023-04-25T13:48:18;5.90;;;2.45;;
52888;SDS011;41413;52.770;6.892;2023-04-25T13:50:46;3.15;;;2.22;;
52888;SDS011;41413;52.770;6.892;2023-04-25T13:53:12;2.92;;;2.33;;
52888;SDS011;41413;52.770;6.892;2023-04-25T13:55:39;6.88;;;2.15;;
52888;SDS011;41413;52.770;6.892;2023-04-25T13:58:06;4.10;;;2.42;;
52888;SDS011;41413;52.770;6.892;2023-04-25T14:00:38;3.97;;;2.17;;
52888;SDS011;41413;52.770;6.892;2023-04-25T14:03:06;6.70;;;2.40;;
52888;SDS011;41413;52.770;6.892;2023-04-25T14:05:36;6.00;;;1.98;;
52888;SDS011;41413;52.770;6.892;2023-04-25T14:08:05;6.68;;;2.60;;
52888;SDS011;41413;52.770;6.892;2023-04-25T14:10:33;4.22;;;2.20;;
52888;SDS011;41413;52.770;6.892;2023-04-25T14:13:00;5.70;;;2.35;;
52888;SDS011;41413;52.770;6.892;2023-04-25T14:15:27;5.72;;;2.45;;
52888;SDS011;41413;52.770;6.892;2023-04-25T14:17:54;2.78;;;1.85;;
52888;SDS011;41413;52.770;6.892;2023-04-25T14:20:20;6.90;;;2.10;;
52888;SDS011;41413;52.770;6.892;2023-04-25T14:22:49;3.55;;;2.22;;
52888;SDS011;41413;52.770;6.892;2023-04-25T14:25:16;3.47;;;2.03;;
52888;SDS011;41413;52.770;6.892;2023-04-25T14:27:43;2.20;;;2.00;;
52888;SDS011;41413;52.770;6.892;2023-04-25T14:30:13;5.82;;;2.97;;
52888;SDS011;41413;52.770;6.892;2023-04-25T14:32:40;9.10;;;2.50;;
52888;SDS011;41413;52.770;6.892;2023-04-25T14:35:07;6.10;;;2.05;;
52888;SDS011;41413;52.770;6.892;2023-04-25T14:37:34;8.18;;;2.90;;
52888;SDS011;41413;52.770;6.892;2023-04-25T14:40:00;9.02;;;2.55;;
52888;SDS011;41413;52.770;6.892;2023-04-25T14:42:27;4.95;;;2.55;;
52888;SDS011;41413;52.770;6.892;2023-04-25T14:44:54;5.38;;;2.45;;
52888;SDS011;41413;52.770;6.892;2023-04-25T14:47:21;10.38;;;2.30;;
52888;SDS011;41413;52.770;6.892;2023-04-25T14:49:47;3.60;;;2.53;;
52888;SDS011;41413;52.770;6.892;2023-04-25T14:52:20;8.85;;;3.05;;
52888;SDS011;41413;52.770;6.892;2023-04-25T14:54:47;5.15;;;2.63;;
52888;SDS011;41413;52.770;6.892;2023-04-25T14:57:14;4.22;;;2.70;;
52888;SDS011;41413;52.770;6.892;2023-04-25T14:59:41;7.35;;;2.17;;
52888;SDS011;41413;52.770;6.892;2023-04-25T15:02:08;6.10;;;2.10;;